Time;durP1;ratioP1;P1;durP2;ratioP2;P2;SDS_P1;SDS_P2;PMS_P1;PMS_P2;Temp;Humidity;BMP_temperature;BMP_pressure;BME280_temperature;BME280_humidity;BME280_pressure;Samples;Min_cycle;Max_cycle;Signal;HPM_P1;HPM_P2
2022/05/10 00:00:15;;;;;;;;;;;14.20;94.00;;;;;;5056007;28;19925;-66
2022/05/10 00:02:42;;;;;;;;;;;14.20;94.40;;;;;;5062964;28;19951;-66
2022/05/10 00:05:09;;;;;;;;;;;14.10;94.80;;;;;;5064235;28;20018;-66
2022/05/10 00:07:37;;;;;;;;;;;14.10;95.20;;;;;;5055887;28;19931;-66
2022/05/10 00:10:05;;;;;;;;;;;14.10;95.40;;;;;;5051408;28;20028;-66
2022/05/10 00:12:33;;;;;;;;;;;14.00;95.80;;;;;;5058393;28;19960;-67
2022/05/10 00:15:00;;;;;;;;;;;13.90;96.20;;;;;;5060486;28;19924;-66
2022/05/10 00:17:27;;;;;;;;;;;13.90;96.80;;;;;;5066274;28;19935;-66
2022/05/10 00:19:55;;;;;;;;;;;13.90;97.20;;;;;;5058234;28;19928;-66
2022/05/10 00:22:22;;;;;;;;;;;13.90;97.50;;;;;;5067172;28;19977;-67
2022/05/10 00:24:50;;;;;;;;;;;13.90;97.70;;;;;;5068425;28;19990;-66
2022/05/10 00:27:16;;;;;;;;;;;13.90;98.00;;;;;;5067277;28;19979;-67
2022/05/10 00:29:45;;;;;;;;;;;13.90;98.20;;;;;;5050965;28;19956;-66
2022/05/10 00:32:11;;;;;;;;;;;13.90;98.50;;;;;;5067733;28;20327;-67
2022/05/10 00:34:38;;;;;;;;;;;13.90;98.70;;;;;;5068203;28;20314;-66
2022/05/10 00:37:05;;;;;;;;;;;13.80;98.90;;;;;;5068998;28;19929;-66
2022/05/10 00:39:31;;;;;;;;;;;13.80;99.20;;;;;;5060159;28;19924;-66
2022/05/10 00:41:59;;;;;;;;;;;13.90;99.30;;;;;;5052868;28;19932;-66
2022/05/10 00:44:30;;;;;;;;;;;13.80;99.30;;;;;;5067840;28;19924;-67
2022/05/10 00:47:02;;;;;;;;;;;13.80;99.60;;;;;;5065217;28;19931;-66
2022/05/10 00:49:31;;;;;;;;;;;13.70;99.90;;;;;;5066602;28;19924;-66
2022/05/10 00:52:02;;;;;;;;;;;13.70;99.90;;;;;;5067860;28;19933;-66
2022/05/10 00:54:32;;;;;;;;;;;13.60;99.90;;;;;;5058724;28;19960;-67
2022/05/10 00:57:06;;;;;;;;;;;13.60;99.90;;;;;;5063258;28;19933;-66
2022/05/10 00:59:36;;;;;;;;;;;13.60;99.90;;;;;;5058623;28;19956;-66
2022/05/10 01:02:07;;;;;;;;;;;13.50;99.90;;;;;;5058361;28;19925;-66
2022/05/10 01:04:38;;;;;;;;;;;13.50;99.90;;;;;;5055602;28;19924;-66
2022/05/10 01:07:08;;;;;;;;;;;13.60;99.90;;;;;;5059184;28;19931;-66
2022/05/10 01:09:41;;;;;;;;;;;13.50;99.90;;;;;;5070172;28;19933;-65
2022/05/10 01:12:10;;;;;;;;;;;13.50;99.90;;;;;;5069111;28;20403;-65
2022/05/10 01:14:42;;;;;;;;;;;13.40;99.90;;;;;;5064077;28;19924;-65
2022/05/10 01:17:10;;;;;;;;;;;13.50;99.90;;;;;;5055620;28;19971;-65
2022/05/10 01:19:37;;;;;;;;;;;13.60;99.90;;;;;;5065834;28;19929;-65
2022/05/10 01:22:10;;;;;;;;;;;13.60;99.90;;;;;;5057323;28;19925;-65
2022/05/10 01:24:47;;;;;;;;;;;13.50;99.90;;;;;;5051978;28;19932;-65
2022/05/10 01:27:20;;;;;;;;;;;13.50;99.90;;;;;;5058574;28;19924;-66
2022/05/10 01:29:50;;;;;;;;;;;13.50;99.90;;;;;;5068815;28;20020;-66
2022/05/10 01:35:04;;;;;;;;;;;13.50;99.90;;;;;;5056412;28;19931;-66
2022/05/10 01:37:32;;;;;;;;;;;13.50;99.90;;;;;;5070771;28;20069;-65
2022/05/10 01:40:03;;;;;;;;;;;13.50;99.90;;;;;;5061876;28;19931;-66
2022/05/10 01:42:31;;;;;;;;;;;13.50;99.90;;;;;;5063719;28;19925;-66
2022/05/10 01:45:03;;;;;;;;;;;13.50;99.90;;;;;;5061403;28;19924;-66
2022/05/10 01:47:31;;;;;;;;;;;13.60;99.90;;;;;;5062694;28;19924;-65
2022/05/10 01:50:02;;;;;;;;;;;13.60;99.90;;;;;;5071998;28;20302;-66
2022/05/10 01:52:31;;;;;;;;;;;13.60;99.90;;;;;;5060747;28;19928;-65
2022/05/10 01:54:59;;;;;;;;;;;13.60;99.90;;;;;;5076795;28;20007;-65
2022/05/10 01:57:26;;;;;;;;;;;13.70;99.90;;;;;;5061995;28;19924;-65
2022/05/10 01:59:58;;;;;;;;;;;13.70;99.90;;;;;;5072220;28;20019;-65
2022/05/10 02:02:27;;;;;;;;;;;13.70;99.90;;;;;;5058737;28;19925;-65
2022/05/10 02:04:56;;;;;;;;;;;13.70;99.90;;;;;;5061894;28;20383;-65
2022/05/10 02:07:24;;;;;;;;;;;13.70;99.90;;;;;;5066343;28;20019;-66
2022/05/10 02:09:56;;;;;;;;;;;13.70;99.90;;;;;;5056154;28;19929;-66
2022/05/10 02:12:30;;;;;;;;;;;13.60;99.90;;;;;;5058499;28;19931;-66
2022/05/10 02:14:59;;;;;;;;;;;13.50;99.90;;;;;;5066814;28;19924;-66
2022/05/10 02:17:31;;;;;;;;;;;13.50;99.90;;;;;;5070647;28;20375;-67
2022/05/10 02:20:03;;;;;;;;;;;13.40;99.90;;;;;;5068799;28;19924;-67
2022/05/10 02:22:33;;;;;;;;;;;13.40;99.90;;;;;;5060868;28;19926;-67
2022/05/10 02:25:02;;;;;;;;;;;13.30;99.90;;;;;;5060378;28;20315;-66
2022/05/10 02:27:33;;;;;;;;;;;13.30;99.90;;;;;;5068517;28;19940;-67
2022/05/10 02:30:02;;;;;;;;;;;13.30;99.90;;;;;;5063828;28;19933;-66
2022/05/10 02:35:18;;;;;;;;;;;13.30;99.90;;;;;;5070087;28;19931;-67
2022/05/10 02:37:45;;;;;;;;;;;13.30;99.90;;;;;;5065288;28;19929;-66
2022/05/10 02:40:12;;;;;;;;;;;13.40;99.90;;;;;;5068316;28;19924;-66
2022/05/10 02:42:39;;;;;;;;;;;13.40;99.90;;;;;;5061023;28;19956;-66
2022/05/10 02:45:07;;;;;;;;;;;13.30;99.90;;;;;;5064593;28;20030;-66
2022/05/10 02:47:36;;;;;;;;;;;13.30;99.90;;;;;;5069139;28;19928;-66
2022/05/10 02:50:03;;;;;;;;;;;13.40;99.90;;;;;;5056424;28;19925;-66
2022/05/10 02:52:30;;;;;;;;;;;13.40;99.90;;;;;;5067217;28;19936;-67
2022/05/10 02:54:58;;;;;;;;;;;13.50;99.90;;;;;;5067116;28;19924;-67
2022/05/10 02:57:26;;;;;;;;;;;13.60;99.90;;;;;;5068098;28;19933;-66
2022/05/10 02:59:54;;;;;;;;;;;13.50;99.90;;;;;;5055641;28;19925;-67
2022/05/10 03:02:22;;;;;;;;;;;13.60;99.90;;;;;;5064304;28;20003;-67
2022/05/10 03:04:53;;;;;;;;;;;13.60;99.90;;;;;;5056266;28;19975;-67
2022/05/10 03:07:20;;;;;;;;;;;13.60;99.90;;;;;;5064585;28;19963;-66
2022/05/10 03:09:46;;;;;;;;;;;13.70;99.90;;;;;;5066617;28;19925;-66
2022/05/10 03:12:13;;;;;;;;;;;13.80;99.90;;;;;;5060744;28;20451;-66
2022/05/10 03:14:40;;;;;;;;;;;13.90;99.90;;;;;;5061644;28;19931;-67
2022/05/10 03:17:10;;;;;;;;;;;14.00;99.90;;;;;;5062475;28;19924;-66
2022/05/10 03:19:40;;;;;;;;;;;14.00;99.90;;;;;;5062912;28;19974;-65
2022/05/10 03:22:08;;;;;;;;;;;14.10;99.90;;;;;;5059677;28;20376;-64
2022/05/10 03:24:35;;;;;;;;;;;14.20;99.90;;;;;;5070067;28;20379;-65
2022/05/10 03:27:03;;;;;;;;;;;14.20;99.90;;;;;;5061035;28;19935;-66
2022/05/10 03:29:29;;;;;;;;;;;14.30;99.90;;;;;;5060137;28;19931;-65
2022/05/10 03:31:56;;;;;;;;;;;14.40;99.90;;;;;;5059654;28;19931;-65
2022/05/10 03:37:08;;;;;;;;;;;14.40;99.90;;;;;;5067533;28;20475;-65
2022/05/10 03:39:35;;;;;;;;;;;14.40;99.90;;;;;;5069215;28;19930;-65
2022/05/10 03:42:03;;;;;;;;;;;14.50;99.90;;;;;;5062250;28;20036;-66
2022/05/10 03:44:31;;;;;;;;;;;14.50;99.90;;;;;;5059765;28;19950;-65
2022/05/10 03:46:58;;;;;;;;;;;14.50;99.90;;;;;;5053892;28;20058;-68
2022/05/10 03:49:24;;;;;;;;;;;14.60;99.90;;;;;;5070021;28;19924;-65
2022/05/10 03:51:53;;;;;;;;;;;14.50;99.90;;;;;;5060534;28;20458;-66
2022/05/10 03:54:21;;;;;;;;;;;14.60;99.90;;;;;;5066091;28;19924;-66
2022/05/10 03:56:48;;;;;;;;;;;14.50;99.90;;;;;;5060948;28;19940;-66
2022/05/10 03:59:15;;;;;;;;;;;14.50;99.90;;;;;;5067635;28;20388;-66
2022/05/10 04:01:42;;;;;;;;;;;14.40;99.90;;;;;;5049635;28;19925;-65
2022/05/10 04:04:09;;;;;;;;;;;14.40;99.90;;;;;;5059950;28;19925;-66
2022/05/10 04:06:35;;;;;;;;;;;14.40;99.90;;;;;;5058043;28;20330;-65
2022/05/10 04:09:02;;;;;;;;;;;14.40;99.90;;;;;;5061743;28;20307;-66
2022/05/10 04:11:31;;;;;;;;;;;14.30;99.90;;;;;;5066782;28;19934;-65
2022/05/10 04:13:57;;;;;;;;;;;14.30;99.90;;;;;;5068339;28;19954;-64
2022/05/10 04:16:24;;;;;;;;;;;14.30;99.90;;;;;;5068414;28;19931;-65
2022/05/10 04:18:51;;;;;;;;;;;14.30;99.90;;;;;;5063283;28;19932;-67
2022/05/10 04:21:17;;;;;;;;;;;14.30;99.90;;;;;;5057406;28;19924;-65
2022/05/10 04:23:44;;;;;;;;;;;14.30;99.90;;;;;;5064586;28;19943;-65
2022/05/10 04:26:12;;;;;;;;;;;14.30;99.90;;;;;;5066110;28;19925;-65
2022/05/10 04:28:41;;;;;;;;;;;14.40;99.90;;;;;;5061501;28;19935;-66
2022/05/10 04:31:08;;;;;;;;;;;14.50;99.90;;;;;;5065608;28;19931;-66
2022/05/10 04:33:36;;;;;;;;;;;14.70;99.90;;;;;;5062166;28;20363;-66
2022/05/10 04:36:02;;;;;;;;;;;14.90;99.50;;;;;;5063958;28;19996;-66
2022/05/10 04:38:29;;;;;;;;;;;15.10;98.20;;;;;;5063469;28;19924;-66
2022/05/10 04:43:41;;;;;;;;;;;15.60;96.00;;;;;;5064448;28;20404;-67
2022/05/10 04:46:08;;;;;;;;;;;15.70;95.10;;;;;;5065409;28;20273;-67
2022/05/10 04:48:35;;;;;;;;;;;15.90;94.40;;;;;;5065543;28;19925;-66
2022/05/10 04:51:01;;;;;;;;;;;16.00;94.00;;;;;;5069819;28;20023;-66
2022/05/10 04:53:28;;;;;;;;;;;16.10;93.70;;;;;;5069462;28;20362;-66
2022/05/10 04:55:55;;;;;;;;;;;16.10;93.30;;;;;;5070273;28;19925;-66
2022/05/10 04:58:21;;;;;;;;;;;16.30;92.90;;;;;;5069482;28;20019;-67
2022/05/10 05:00:49;;;;;;;;;;;16.40;92.30;;;;;;5062434;28;19932;-66
2022/05/10 05:03:16;;;;;;;;;;;16.50;92.00;;;;;;5056612;28;19931;-67
2022/05/10 05:05:43;;;;;;;;;;;16.60;91.60;;;;;;5068845;28;19924;-67
2022/05/10 05:08:10;;;;;;;;;;;16.70;91.40;;;;;;5068459;28;20413;-67
2022/05/10 05:10:37;;;;;;;;;;;16.70;91.30;;;;;;5075007;28;19924;-67
2022/05/10 05:13:03;;;;;;;;;;;16.80;91.40;;;;;;5072576;28;19932;-67
2022/05/10 05:15:30;;;;;;;;;;;16.80;91.30;;;;;;5066972;28;20360;-67
2022/05/10 05:17:58;;;;;;;;;;;16.90;91.20;;;;;;5060666;28;19928;-67
2022/05/10 05:20:25;;;;;;;;;;;16.90;91.20;;;;;;5073253;28;19931;-67
2022/05/10 05:22:52;;;;;;;;;;;17.00;91.20;;;;;;5072470;28;19998;-68
2022/05/10 05:25:19;;;;;;;;;;;17.10;91.10;;;;;;5072194;28;19931;-68
2022/05/10 05:27:45;;;;;;;;;;;17.10;91.00;;;;;;5067766;28;19924;-67
2022/05/10 05:30:12;;;;;;;;;;;17.20;91.10;;;;;;5062143;28;19975;-66
2022/05/10 05:32:40;;;;;;;;;;;17.30;90.90;;;;;;5069787;28;20023;-67
2022/05/10 05:35:10;;;;;;;;;;;17.30;91.00;;;;;;5067081;28;20017;-67
2022/05/10 05:37:37;;;;;;;;;;;17.30;91.00;;;;;;5060465;28;19924;-67
2022/05/10 05:40:06;;;;;;;;;;;17.50;90.90;;;;;;5061395;28;20334;-67
2022/05/10 05:42:33;;;;;;;;;;;17.50;90.90;;;;;;5072672;28;20393;-67
2022/05/10 05:45:00;;;;;;;;;;;17.50;90.90;;;;;;5069860;28;20398;-67
2022/05/10 05:47:27;;;;;;;;;;;17.70;90.90;;;;;;5058206;28;20008;-67
2022/05/10 05:49:53;;;;;;;;;;;17.70;90.80;;;;;;5068197;28;19931;-67
2022/05/10 05:52:22;;;;;;;;;;;17.70;90.60;;;;;;5060189;28;19925;-67
2022/05/10 05:54:49;;;;;;;;;;;17.70;90.80;;;;;;5062005;28;19932;-67
2022/05/10 05:57:16;;;;;;;;;;;17.80;90.40;;;;;;5070031;28;19924;-68
2022/05/10 05:59:43;;;;;;;;;;;17.80;90.50;;;;;;5054977;28;19929;-66
2022/05/10 06:02:11;;;;;;;;;;;17.80;90.30;;;;;;5054115;28;19925;-68
2022/05/10 06:04:38;;;;;;;;;;;17.80;90.20;;;;;;5062610;28;19955;-68
2022/05/10 06:07:05;;;;;;;;;;;17.80;89.90;;;;;;5061970;28;19924;-67
2022/05/10 06:09:33;;;;;;;;;;;17.90;90.00;;;;;;5057069;28;20009;-67
2022/05/10 06:12:00;;;;;;;;;;;17.90;90.00;;;;;;5059601;28;19968;-68
2022/05/10 06:14:27;;;;;;;;;;;18.00;89.40;;;;;;5061845;28;19939;-68
2022/05/10 06:16:55;;;;;;;;;;;18.10;88.80;;;;;;5063127;28;19932;-69
2022/05/10 06:19:22;;;;;;;;;;;18.10;88.30;;;;;;5067100;28;20017;-67
2022/05/10 06:21:48;;;;;;;;;;;18.20;87.70;;;;;;5060195;28;19946;-68
2022/05/10 06:24:15;;;;;;;;;;;18.20;87.60;;;;;;5062608;28;19925;-68
2022/05/10 06:26:43;;;;;;;;;;;18.30;87.80;;;;;;5066991;28;19928;-67
2022/05/10 06:29:10;;;;;;;;;;;18.40;87.30;;;;;;5058545;28;20324;-65
2022/05/10 06:31:37;;;;;;;;;;;18.50;86.90;;;;;;5062980;28;19925;-63
2022/05/10 06:34:05;;;;;;;;;;;18.60;86.20;;;;;;5066321;28;20024;-66
2022/05/10 06:36:32;;;;;;;;;;;18.70;85.30;;;;;;5066779;28;19929;-65
2022/05/10 06:38:59;;;;;;;;;;;18.80;85.00;;;;;;5062940;28;20260;-65
2022/05/10 06:41:25;;;;;;;;;;;19.00;84.70;;;;;;5063490;28;19929;-64
2022/05/10 06:43:53;;;;;;;;;;;19.10;83.50;;;;;;5061115;28;19932;-64
2022/05/10 06:46:21;;;;;;;;;;;19.10;83.30;;;;;;5060585;28;20016;-67
2022/05/10 06:48:48;;;;;;;;;;;19.10;82.40;;;;;;5061094;28;20292;-67
2022/05/10 06:51:16;;;;;;;;;;;19.50;82.10;;;;;;5063355;28;20016;-67
2022/05/10 06:53:43;;;;;;;;;;;19.80;80.20;;;;;;5064463;28;19979;-67
2022/05/10 06:56:10;;;;;;;;;;;20.00;78.30;;;;;;5059537;28;19947;-68
2022/05/10 06:58:37;;;;;;;;;;;19.80;77.50;;;;;;5063292;28;19934;-66
2022/05/10 07:01:10;;;;;;;;;;;19.60;78.60;;;;;;5062760;28;19987;-66
2022/05/10 07:03:37;;;;;;;;;;;19.50;78.90;;;;;;5058138;28;19932;-66
2022/05/10 07:06:05;;;;;;;;;;;19.40;79.40;;;;;;5059852;28;20086;-66
2022/05/10 07:08:32;;;;;;;;;;;19.50;79.40;;;;;;5064546;28;19940;-68
2022/05/10 07:10:59;;;;;;;;;;;19.70;78.50;;;;;;5065614;28;19982;-68
2022/05/10 07:13:26;;;;;;;;;;;19.80;77.10;;;;;;5057641;28;19931;-66
2022/05/10 07:15:53;;;;;;;;;;;19.90;77.00;;;;;;5058965;28;20275;-66
2022/05/10 07:18:21;;;;;;;;;;;19.80;77.10;;;;;;5063977;28;20294;-66
2022/05/10 07:20:49;;;;;;;;;;;19.90;76.90;;;;;;5064819;28;20067;-66
2022/05/10 07:23:19;;;;;;;;;;;20.00;75.30;;;;;;5063140;28;20019;-68
2022/05/10 07:25:46;;;;;;;;;;;20.10;75.10;;;;;;5062341;28;19924;-66
2022/05/10 07:28:13;;;;;;;;;;;20.30;73.90;;;;;;5063976;28;19939;-67
2022/05/10 07:30:40;;;;;;;;;;;20.20;73.20;;;;;;5058829;28;20011;-66
2022/05/10 07:33:07;;;;;;;;;;;20.20;71.90;;;;;;5057471;28;19924;-66
2022/05/10 07:38:19;;;;;;;;;;;20.10;72.80;;;;;;5065934;28;19931;-66
2022/05/10 07:40:47;;;;;;;;;;;20.20;71.40;;;;;;5060177;28;19931;-67
2022/05/10 07:43:13;;;;;;;;;;;20.40;71.10;;;;;;5059551;28;19972;-67
2022/05/10 07:45:41;;;;;;;;;;;20.50;70.30;;;;;;5057206;28;19924;-67
2022/05/10 07:48:07;;;;;;;;;;;20.60;69.80;;;;;;5058311;28;20051;-66
2022/05/10 07:50:36;;;;;;;;;;;21.00;68.70;;;;;;5055918;28;20019;-66
2022/05/10 07:53:06;;;;;;;;;;;21.10;66.00;;;;;;5059801;28;20388;-67
2022/05/10 07:55:32;;;;;;;;;;;21.10;65.40;;;;;;5058018;28;20280;-65
2022/05/10 07:57:59;;;;;;;;;;;21.00;65.40;;;;;;5063790;28;20525;-67
2022/05/10 08:00:26;;;;;;;;;;;21.00;65.40;;;;;;5061731;28;19924;-68
2022/05/10 08:02:53;;;;;;;;;;;21.00;64.80;;;;;;5063214;28;20011;-68
2022/05/10 08:05:22;;;;;;;;;;;21.00;65.30;;;;;;5062786;28;20294;-68
2022/05/10 08:07:50;;;;;;;;;;;21.00;64.20;;;;;;5062684;28;20390;-67
2022/05/10 08:10:17;;;;;;;;;;;21.00;64.30;;;;;;5064300;28;19962;-68
2022/05/10 08:12:44;;;;;;;;;;;21.00;64.30;;;;;;5054030;28;19936;-69
2022/05/10 08:15:11;;;;;;;;;;;21.10;63.10;;;;;;5066109;28;20356;-68
2022/05/10 08:17:39;;;;;;;;;;;21.20;63.30;;;;;;5058205;28;19954;-68
2022/05/10 08:20:06;;;;;;;;;;;21.20;62.90;;;;;;5067192;28;19932;-66
2022/05/10 08:22:33;;;;;;;;;;;21.30;62.70;;;;;;5064909;28;19925;-67
2022/05/10 08:25:01;;;;;;;;;;;21.50;61.80;;;;;;5068131;28;20033;-67
2022/05/10 08:27:28;;;;;;;;;;;21.70;62.00;;;;;;5055853;28;20286;-67
2022/05/10 08:29:55;;;;;;;;;;;22.10;59.70;;;;;;5069216;28;19947;-67
2022/05/10 08:32:21;;;;;;;;;;;22.40;57.70;;;;;;5068391;28;20298;-67
2022/05/10 08:34:48;;;;;;;;;;;22.90;56.10;;;;;;5054480;28;20011;-71
2022/05/10 08:37:15;;;;;;;;;;;24.30;54.10;;;;;;5062742;28;19924;-71
2022/05/10 08:39:41;;;;;;;;;;;24.70;49.70;;;;;;5052301;28;19925;-70
2022/05/10 08:42:15;;;;;;;;;;;24.70;49.30;;;;;;5049786;28;20012;-71
2022/05/10 08:44:44;;;;;;;;;;;24.80;47.90;;;;;;5064597;28;20292;-71
2022/05/10 08:47:12;;;;;;;;;;;25.10;46.80;;;;;;5065667;28;19947;-71
2022/05/10 08:49:41;;;;;;;;;;;25.40;45.40;;;;;;5053008;28;19978;-71
2022/05/10 08:52:08;;;;;;;;;;;26.10;42.40;;;;;;5057347;28;20067;-71
2022/05/10 08:54:37;;;;;;;;;;;25.90;40.90;;;;;;5060207;28;19925;-70
2022/05/10 08:57:06;;;;;;;;;;;25.20;41.70;;;;;;5057678;28;20015;-71
2022/05/10 08:59:37;;;;;;;;;;;25.00;42.90;;;;;;5060312;28;20446;-71
2022/05/10 09:02:06;;;;;;;;;;;25.50;41.20;;;;;;5059787;28;19928;-72
2022/05/10 09:04:39;;;;;;;;;;;25.70;39.60;;;;;;5059205;28;19924;-71
2022/05/10 09:07:12;;;;;;;;;;;25.90;39.60;;;;;;5056234;28;20017;-72
2022/05/10 09:09:43;;;;;;;;;;;25.80;38.40;;;;;;5057635;28;20789;-72
2022/05/10 09:12:10;;;;;;;;;;;25.90;38.00;;;;;;5053737;28;19925;-71
2022/05/10 09:14:42;;;;;;;;;;;26.20;37.70;;;;;;5059840;28;20019;-72
2022/05/10 09:17:10;;;;;;;;;;;26.10;36.40;;;;;;5062201;28;19929;-71
2022/05/10 09:19:38;;;;;;;;;;;25.20;37.50;;;;;;5059264;28;19929;-70
2022/05/10 09:22:11;;;;;;;;;;;24.80;37.70;;;;;;5057524;28;19928;-71
2022/05/10 09:24:45;;;;;;;;;;;24.70;39.00;;;;;;5064124;28;19944;-71
2022/05/10 09:27:13;;;;;;;;;;;25.00;38.70;;;;;;5064637;28;19958;-71
2022/05/10 09:29:44;;;;;;;;;;;25.10;38.10;;;;;;5062388;28;20007;-73
2022/05/10 09:34:58;;;;;;;;;;;25.30;37.20;;;;;;5057831;28;19931;-72
2022/05/10 09:37:27;;;;;;;;;;;25.40;37.30;;;;;;5060380;28;19933;-73
2022/05/10 09:40:12;;;;;;;;;;;25.20;36.10;;;;;;5061801;28;19943;-73
2022/05/10 09:42:39;;;;;;;;;;;24.90;37.20;;;;;;5058240;28;19956;-72
2022/05/10 09:45:12;;;;;;;;;;;25.10;36.50;;;;;;5064176;28;19924;-72
2022/05/10 09:47:39;;;;;;;;;;;25.30;34.90;;;;;;5067164;28;20380;-71
2022/05/10 09:50:13;;;;;;;;;;;25.40;34.50;;;;;;5058764;28;19939;-70
2022/05/10 09:52:40;;;;;;;;;;;25.40;34.80;;;;;;5066424;28;20012;-72
2022/05/10 09:55:09;;;;;;;;;;;25.60;34.20;;;;;;5060299;28;19924;-72
2022/05/10 09:57:37;;;;;;;;;;;25.20;34.50;;;;;;5057975;28;19929;-72
2022/05/10 10:00:05;;;;;;;;;;;24.60;35.30;;;;;;5059100;28;19932;-72
2022/05/10 10:02:34;;;;;;;;;;;24.70;36.10;;;;;;5062801;28;20000;-72
2022/05/10 10:05:17;;;;;;;;;;;24.60;35.70;;;;;;5068698;28;20295;-72
2022/05/10 10:07:49;;;;;;;;;;;24.70;35.70;;;;;;5064769;28;19933;-72
2022/05/10 10:10:16;;;;;;;;;;;24.70;34.80;;;;;;5062119;28;19964;-72
2022/05/10 10:12:44;;;;;;;;;;;24.60;34.70;;;;;;5067461;28;20007;-72
2022/05/10 10:15:18;;;;;;;;;;;24.80;34.50;;;;;;5064524;28;19931;-72
2022/05/10 10:17:50;;;;;;;;;;;24.70;34.30;;;;;;5059887;28;19975;-73
2022/05/10 10:20:20;;;;;;;;;;;24.90;34.40;;;;;;5060726;28;19931;-73
2022/05/10 10:22:48;;;;;;;;;;;25.20;34.90;;;;;;5060422;28;19933;-74
2022/05/10 10:25:18;;;;;;;;;;;25.50;34.10;;;;;;5137879;22;19932;-73
2022/05/10 10:27:48;;;;;;;;;;;25.50;33.60;;;;;;5056696;28;19931;-73
2022/05/10 10:30:18;;;;;;;;;;;25.50;33.10;;;;;;5061177;28;19971;-72
2022/05/10 10:32:47;;;;;;;;;;;25.40;32.60;;;;;;5054451;28;19931;-73
2022/05/10 10:35:17;;;;;;;;;;;25.20;33.10;;;;;;5056862;28;19929;-73
2022/05/10 10:37:47;;;;;;;;;;;24.90;33.20;;;;;;5055502;28;19931;-73
2022/05/10 10:40:19;;;;;;;;;;;24.80;34.10;;;;;;5062843;28;19925;-72
2022/05/10 10:42:50;;;;;;;;;;;25.00;33.70;;;;;;5046998;28;19931;-73
2022/05/10 10:45:17;;;;;;;;;;;25.10;34.20;;;;;;5053034;28;19924;-73
2022/05/10 10:47:49;;;;;;;;;;;25.20;34.40;;;;;;5053306;28;19925;-71
2022/05/10 10:50:20;;;;;;;;;;;25.30;34.00;;;;;;5052775;28;20004;-74
2022/05/10 10:52:47;;;;;;;;;;;25.00;34.60;;;;;;5041789;28;19933;-72
2022/05/10 10:55:18;;;;;;;;;;;25.40;34.80;;;;;;5045773;28;20440;-73
2022/05/10 10:57:52;;;;;;;;;;;25.40;33.60;;;;;;5043554;28;19979;-73
2022/05/10 11:00:19;;;;;;;;;;;25.40;33.10;;;;;;5040989;28;19937;-73
2022/05/10 11:03:00;;;;;;;;;;;25.60;32.80;;;;;;5043536;28;19925;-71
2022/05/10 11:05:37;;;;;;;;;;;25.60;32.60;;;;;;5044759;28;19931;-71
2022/05/10 11:08:11;;;;;;;;;;;25.50;33.40;;;;;;5045966;28;19932;-71
2022/05/10 11:10:41;;;;;;;;;;;25.50;33.00;;;;;;5037649;22;19929;-72
2022/05/10 11:13:21;;;;;;;;;;;25.30;32.10;;;;;;5018641;28;21524;-72
2022/05/10 11:15:52;;;;;;;;;;;25.40;31.80;;;;;;5023058;28;19926;-72
2022/05/10 11:18:27;;;;;;;;;;;25.40;32.00;;;;;;5026286;28;20012;-73
2022/05/10 11:20:59;;;;;;;;;;;25.70;30.80;;;;;;5018245;28;19933;-72
2022/05/10 11:23:30;;;;;;;;;;;26.30;31.00;;;;;;5016656;28;20029;-72
2022/05/10 11:26:05;;;;;;;;;;;26.30;30.00;;;;;;5016425;28;20008;-70
2022/05/10 11:28:43;;;;;;;;;;;26.10;29.60;;;;;;5018872;28;19936;-72
2022/05/10 11:31:11;;;;;;;;;;;26.00;29.30;;;;;;5014250;28;19944;-73
2022/05/10 11:33:42;;;;;;;;;;;25.90;29.10;;;;;;5023833;28;20273;-72
2022/05/10 11:36:19;;;;;;;;;;;25.90;29.40;;;;;;5021433;28;19995;-72
2022/05/10 11:39:11;;;;;;;;;;;25.80;29.30;;;;;;5018839;28;20106;-72
2022/05/10 11:41:40;;;;;;;;;;;25.70;29.70;;;;;;5023048;28;20007;-73
2022/05/10 11:44:21;;;;;;;;;;;25.50;29.60;;;;;;5027665;28;19941;-73
2022/05/10 11:47:06;;;;;;;;;;;25.40;30.00;;;;;;5011300;28;20380;-72
2022/05/10 11:50:02;;;;;;;;;;;25.60;29.70;;;;;;5013352;28;20304;-72
2022/05/10 11:52:39;;;;;;;;;;;25.40;30.30;;;;;;5017340;28;20015;-74
2022/05/10 11:55:13;;;;;;;;;;;25.50;30.00;;;;;;5021648;28;20024;-73
2022/05/10 11:57:42;;;;;;;;;;;25.50;28.50;;;;;;5019219;28;19931;-74
2022/05/10 12:00:23;;;;;;;;;;;25.40;28.20;;;;;;5024994;28;20117;-73
2022/05/10 12:02:50;;;;;;;;;;;25.40;28.50;;;;;;5005606;28;19925;-73
2022/05/10 12:05:23;;;;;;;;;;;25.30;28.30;;;;;;5024300;28;19968;-73
2022/05/10 12:07:51;;;;;;;;;;;25.40;28.60;;;;;;5018166;28;19925;-74
2022/05/10 12:10:35;;;;;;;;;;;25.50;28.60;;;;;;5023289;28;19963;-74
2022/05/10 12:13:03;;;;;;;;;;;25.60;28.70;;;;;;5020645;28;20396;-74
2022/05/10 12:21:28;;;;;;;;;;;25.70;27.40;;;;;;5021724;28;20292;-74
2022/05/10 12:24:04;;;;;;;;;;;25.70;27.60;;;;;;5000255;28;20304;-73
2022/05/10 12:26:48;;;;;;;;;;;25.70;26.80;;;;;;5024283;28;19925;-73
2022/05/10 12:29:34;;;;;;;;;;;25.40;27.10;;;;;;5013494;28;19960;-74
2022/05/10 12:32:02;;;;;;;;;;;25.50;27.10;;;;;;5010776;28;20748;-73
2022/05/10 12:34:46;;;;;;;;;;;25.50;27.20;;;;;;5014024;28;19925;-73
2022/05/10 12:37:31;;;;;;;;;;;25.50;27.50;;;;;;5023836;28;19925;-73
2022/05/10 12:40:01;;;;;;;;;;;25.90;27.60;;;;;;5026372;28;19979;-73
2022/05/10 12:42:33;;;;;;;;;;;25.80;26.70;;;;;;5024365;28;19931;-73
2022/05/10 12:45:11;;;;;;;;;;;25.70;27.20;;;;;;5021976;28;19929;-73
2022/05/10 12:47:48;;;;;;;;;;;25.80;27.10;;;;;;5013225;28;19925;-72
2022/05/10 12:50:21;;;;;;;;;;;25.80;26.80;;;;;;5010621;28;19926;-72
2022/05/10 12:52:48;;;;;;;;;;;25.30;27.60;;;;;;5014004;28;20399;-73
2022/05/10 12:55:19;;;;;;;;;;;25.20;27.50;;;;;;5024676;28;19983;-75
2022/05/10 12:57:48;;;;;;;;;;;25.30;27.70;;;;;;5023884;28;19932;-72
2022/05/10 13:00:19;;;;;;;;;;;25.50;26.80;;;;;;5017025;28;19931;-72
2022/05/10 13:02:50;;;;;;;;;;;25.60;26.70;;;;;;5024217;28;19925;-71
2022/05/10 13:05:18;;;;;;;;;;;25.60;26.70;;;;;;5024334;28;19925;-70
2022/05/10 13:07:54;;;;;;;;;;;25.90;25.80;;;;;;5016201;28;19980;-70
2022/05/10 13:10:23;;;;;;;;;;;25.60;26.10;;;;;;5016487;28;20002;-71
2022/05/10 13:12:51;;;;;;;;;;;25.60;26.60;;;;;;5025680;28;19939;-73
2022/05/10 13:15:19;;;;;;;;;;;25.60;26.70;;;;;;5017654;28;20012;-73
2022/05/10 13:17:47;;;;;;;;;;;25.50;26.70;;;;;;5026737;28;19931;-70
2022/05/10 13:20:15;;;;;;;;;;;25.50;25.90;;;;;;5028718;28;19925;-70
2022/05/10 13:22:49;;;;;;;;;;;25.60;24.60;;;;;;5032995;28;19972;-71
2022/05/10 13:25:16;;;;;;;;;;;25.60;23.70;;;;;;5026240;28;19931;-71
2022/05/10 13:27:45;;;;;;;;;;;25.60;23.20;;;;;;5016931;28;20316;-71
2022/05/10 13:30:15;;;;;;;;;;;25.20;23.30;;;;;;5016136;28;19929;-71
2022/05/10 13:32:44;;;;;;;;;;;25.10;22.70;;;;;;5028983;28;19960;-72
2022/05/10 13:35:13;;;;;;;;;;;25.10;23.60;;;;;;5028923;28;20016;-71
2022/05/10 13:37:41;;;;;;;;;;;25.00;23.90;;;;;;5027369;28;19989;-71
2022/05/10 13:40:12;;;;;;;;;;;25.10;24.50;;;;;;5028054;28;20100;-69
2022/05/10 13:42:39;;;;;;;;;;;25.20;23.20;;;;;;5020699;28;19925;-70
2022/05/10 13:45:09;;;;;;;;;;;25.10;23.40;;;;;;5028922;28;20399;-71
2022/05/10 13:47:36;;;;;;;;;;;25.00;22.60;;;;;;5015749;28;19925;-70
2022/05/10 13:50:03;;;;;;;;;;;24.90;23.20;;;;;;5031642;28;20376;-71
2022/05/10 13:52:32;;;;;;;;;;;25.00;23.30;;;;;;5031141;28;20295;-70
2022/05/10 13:55:00;;;;;;;;;;;24.90;23.80;;;;;;5027028;28;19926;-69
2022/05/10 13:57:28;;;;;;;;;;;25.00;24.00;;;;;;5015499;28;19925;-72
2022/05/10 13:59:56;;;;;;;;;;;25.20;23.50;;;;;;5026422;28;20491;-72
2022/05/10 14:02:26;;;;;;;;;;;25.00;23.40;;;;;;5028067;28;19926;-68
2022/05/10 14:04:54;;;;;;;;;;;24.80;23.20;;;;;;5024887;28;19929;-70
2022/05/10 14:07:25;;;;;;;;;;;24.80;23.70;;;;;;5023494;28;19932;-70
2022/05/10 14:09:53;;;;;;;;;;;24.80;24.00;;;;;;5015477;28;20003;-71
2022/05/10 14:12:23;;;;;;;;;;;25.00;24.40;;;;;;5019322;28;20388;-71
2022/05/10 14:14:50;;;;;;;;;;;25.00;24.20;;;;;;5023531;28;19926;-70
2022/05/10 14:17:17;;;;;;;;;;;25.10;24.20;;;;;;5019699;28;19968;-71
2022/05/10 14:19:46;;;;;;;;;;;25.20;23.80;;;;;;5020025;28;20367;-71
2022/05/10 14:22:16;;;;;;;;;;;25.30;23.70;;;;;;5015082;28;20477;-70
2022/05/10 14:24:43;;;;;;;;;;;25.50;23.60;;;;;;5020632;28;19944;-70
2022/05/10 14:27:14;;;;;;;;;;;25.60;23.10;;;;;;5019493;28;20210;-72
2022/05/10 14:29:43;;;;;;;;;;;25.70;23.30;;;;;;5018327;28;19948;-69
2022/05/10 14:32:11;;;;;;;;;;;25.80;23.00;;;;;;5017612;28;20001;-71
2022/05/10 14:34:48;;;;;;;;;;;25.60;22.60;;;;;;5018237;28;20028;-70
2022/05/10 14:37:24;;;;;;;;;;;25.40;23.00;;;;;;5022698;28;20012;-70
2022/05/10 14:39:51;;;;;;;;;;;25.50;22.60;;;;;;5026895;28;20327;-71
2022/05/10 14:42:29;;;;;;;;;;;25.80;20.60;;;;;;5023009;28;19947;-72
2022/05/10 14:45:11;;;;;;;;;;;25.90;18.60;;;;;;5014102;28;20081;-72
2022/05/10 14:47:38;;;;;;;;;;;25.60;15.90;;;;;;5022375;28;19929;-74
2022/05/10 14:50:08;;;;;;;;;;;25.40;15.60;;;;;;5015145;28;19932;-73